Meridian Naval Air Station
KNMM : now visible

Airfield :











YOU CAN JOIN US ON...

 
LOGIN :

Register | Disclaimer

   EN    FR    IT 

 









Legend :    VFR   Marginal VFR   IFR   Intensive IFR   Very Intensive IFR
Visi :
Ceiling :
>= 8 km
>= 3000ft
5 to 8 km
1000 to 3000 ft
1500m to 5 km
500 to 1000 ft
800 to 1500m
200 to 500 ft
< 800m
< 200 ft
Symbols :   Thunderstorms  Fog  Heavy snow  Heavy precipitations  Wind > 20 kt






- Airport Elevation : 316 ft


KNMM - Meridian Naval Air Station

CURRENT METAR :
  • 190518Z AUTO 35010KT 10SM BKN027 OVC095 14/12 A3020 RMK AO2 T01440117

EXPIRED METARs :
  • 190456Z AUTO 35011KT 10SM OVC090 14/12 A3019 RMK AO2 SLP233 T01440122
  • 190419Z AUTO 34010KT 10SM SCT017 SCT021 OVC080 16/13 A3017 RMK AO2 T01560133
  • 190356Z AUTO 34007KT 10SM FEW013 BKN018 OVC075 16/14 A3017 RMK AO2 SLP225 T01560144
  • 190303Z AUTO 32008KT 10SM BKN014 BKN065 OVC080 16/15 A3016 RMK AO2 T01610150
  • 190256Z AUTO 32009KT 10SM SCT013 BKN070 OVC080 17/15 A3015 RMK AO2 RAE18 CIG 013 SOUTH SLP221 P0001 60014 T01670150 53010

TAF TAF KNMM
Valid from the 18 at 23:00 until the 19 at 23:00 UTC


1823/1923 VRB06KT 9999 BKN013 BKN025 OVC035 QNH3008INS
BECMG 1901/1903 33010KT 9999 VCSH OVC050 QNH3015INS
FM190600 33010KT 9999 SCT040 BKN100 QNH3020INS
BECMG 1918/1920 35010KT 9999 SKC QNH3030INS AUTOMATED SENSOR METWATCH 1823 TIL 1921 T17/1900Z T01/1913Z FN00205



MET'MAP, your aeronautical weather chart ! - Copyright ORBIFLY December 2007 - Disclaimer

ORBIFLY MET'MAP TEAM :

Programming & Development : Alexandra Zaïnal
Concept & original design : Baudouin d'Aumeries
Assistance for programming : Marc-Olivier Méhu
Technical & hardware support : Manuel Goepfert

Contact : metmap@orbifly.com




SOURCES & CREDITS :

   NOAA       Earth
Advisory